PIMOHWEATHER Historical Data
 
Daily Summary for May 27, 2018 Units:  Metric    English   Both
« Previous Day
Next Day »
Daily Weekly Monthly Yearly Custom
  Current: High: Low: Average:
Temperature: 27.5 °C 33 °C 27.5 °C 30.5 °C
Dew Point: 23.3 °C 25.1 °C 22.9 °C 23.8 °C
Humidity: 78% 78% 56% 68%
Wind Speed: 3.2km/h 3.7km/h 3.2km/h 3.5km/h
Wind Gust: 8km/h 16.6km/h - -
WindSSW - - SSW
Pressure: 1010.7 hPa 1010.7 hPa 1010 hPa -
Precipitation: 0 mm      
Historical Graphs
 
 
Tabular Data for May 27, 2018
Time Temp. Dew Point Pressure Wind Wind Speed Wind Gust Humidity Rain Rate (Hourly) Solar Radiation Conditions
08:40 32 °C 23 °C 1010 hPa SSW 3.7 km/h 16.6 km/h 59% 0 mm 601.0 W/m2 OVC
08:48 31.8 °C 23.1 °C 1010 hPa SSW 3.7 km/h 5 km/h 60% 0 mm 687.0 W/m2 OVC
08:53 31.8 °C 23.1 °C 1010 hPa SSW 3.7 km/h 5 km/h 60% 0 mm 687.0 W/m2 OVC
08:58 32.4 °C 23.1 °C 1010 hPa SSW 3.7 km/h 5 km/h 58% 0 mm 695.0 W/m2 OVC
09:04 31.9 °C 22.9 °C 1010 hPa SSW 3.7 km/h 8.7 km/h 59% 0 mm 718.0 W/m2 OVC
09:09 32.3 °C 23 °C 1010 hPa SSW 3.7 km/h 3.7 km/h 58% 0 mm 721.0 W/m2 OVC
09:14 32.3 °C 23 °C 1010.7 hPa SSW 3.7 km/h 7.2 km/h 58% 0 mm 157.0 W/m2 OVC
09:19 32 °C 23 °C 1010.7 hPa SSW 3.7 km/h 10.5 km/h 59% 0 mm 772.0 W/m2 OVC
09:24 32.3 °C 23 °C 1010.7 hPa SSW 3.7 km/h 3.7 km/h 58% 0 mm 754.0 W/m2 OVC
09:29 33 °C 23.1 °C 1010.7 hPa SSW 3.7 km/h 9.3 km/h 56% 0 mm 845.0 W/m2 OVC
09:34 32.6 °C 24.9 °C 1010.7 hPa SSW 3.7 km/h 7.9 km/h 64% 0 mm 845.0 W/m2 OVC
09:39 32.6 °C 24.9 °C 1010.7 hPa SSW 3.7 km/h 7.9 km/h 64% 0 mm 845.0 W/m2 OVC
09:44 31.5 °C 24.1 °C 1010.7 hPa SSW 3.7 km/h 3.7 km/h 65% 0 mm 192.0 W/m2 OVC
09:49 31.3 °C 23.9 °C 1010.7 hPa SSW 3.7 km/h 4 km/h 65% 0 mm 169.0 W/m2 OVC
09:55 30.9 °C 25 °C 1010.7 hPa SSW 3.7 km/h 5.5 km/h 71% 0 mm 165.0 W/m2 OVC
10:00 30.7 °C 24.1 °C 1010.7 hPa SSW 3.7 km/h 3.7 km/h 68% 0 mm 191.0 W/m2 OVC
10:05 30.8 °C 23.9 °C 1010.7 hPa SSW 3.7 km/h 3.7 km/h 67% 0 mm 214.0 W/m2 OVC
10:10 30.6 °C 24 °C 1010.7 hPa SSW 3.7 km/h 3.7 km/h 68% 0 mm 211.0 W/m2 OVC
10:15 30.6 °C 24 °C 1010.7 hPa SSW 3.7 km/h 7.6 km/h 68% 0 mm 924.0 W/m2 OVC
10:20 27.5 °C 23.3 °C 1010.7 hPa SSW 3.2 km/h 8 km/h 78% 0 mm 924.0 W/m2 OVC
10:25 27.5 °C 23.3 °C 1010.7 hPa SSW 3.2 km/h 3.2 km/h 78% 0 mm 866.0 W/m2 OVC
10:30 27.5 °C 23.3 °C 1010.7 hPa SSW 3.2 km/h 8 km/h 78% 0 mm 875.0 W/m2 OVC
10:35 27.5 °C 23.3 °C 1010.7 hPa SSW 3.2 km/h 6.4 km/h 78% 0 mm 751.0 W/m2 OVC
10:40 27.5 °C 23.3 °C 1010.7 hPa SSW 3.2 km/h 6.4 km/h 78% 0 mm 751.0 W/m2 OVC
10:45 30.9 °C 24.1 °C 1010.7 hPa SSW 3.7 km/h 6.1 km/h 67% 0 mm 909.0 W/m2 OVC
10:50 30.9 °C 24.1 °C 1010.7 hPa SSW 3.7 km/h 4 km/h 67% 0 mm 875.0 W/m2 OVC
10:55 27.5 °C 23.3 °C 1010.7 hPa SSW 3.2 km/h 3.2 km/h 78% 0 mm 875.0 W/m2 OVC
11:00 27.5 °C 23.3 °C 1010.7 hPa SSW 3.2 km/h 6.4 km/h 78% 0 mm 857.0 W/m2 OVC
11:05 31.8 °C 24.9 °C 1010.7 hPa SSW 3.7 km/h 9.7 km/h 67% 0 mm 158.0 W/m2 OVC
11:10 31.2 °C 25.1 °C 1010.7 hPa SSW 3.7 km/h 9.3 km/h 70% 0 mm 824.0 W/m2 OVC
11:15 31.1 °C 24 °C 1010 hPa SSW 3.7 km/h 9.3 km/h 66% 0 mm 828.0 W/m2 OVC
11:20 31.3 °C 23.9 °C 1010 hPa SSW 3.7 km/h 8.2 km/h 65% 0 mm 225.0 W/m2 OVC
11:25 31.5 °C 24.1 °C 1010 hPa SSW 3.7 km/h 10.5 km/h 65% 0 mm 849.0 W/m2 OVC
11:30 27.5 °C 23.3 °C 1010.7 hPa SSW 3.2 km/h 8 km/h 78% 0 mm 833.0 W/m2 OVC
11:35 31.3 °C 23.9 °C 1010 hPa SSW 3.7 km/h 11.1 km/h 65% 0 mm 813.0 W/m2 OVC
11:40 31.4 °C 24 °C 1010 hPa SSW 3.7 km/h 13 km/h 65% 0 mm 826.0 W/m2 OVC
11:45 31.5 °C 24.1 °C 1010 hPa SSW 3.7 km/h 7.6 km/h 65% 0 mm 807.0 W/m2 OVC
11:50 31.9 °C 24 °C 1010 hPa SSW 3.7 km/h 7.2 km/h 63% 0 mm 827.0 W/m2 OVC
11:55 31.5 °C 24.1 °C 1010 hPa SSW 3.7 km/h 8.7 km/h 65% 0 mm 854.0 W/m2 OVC
12:00 31.5 °C 24.1 °C 1010 hPa SSW 3.7 km/h 9 km/h 65% 0 mm 847.0 W/m2 OVC
12:05 31.9 °C 24 °C 1010 hPa SSW 3.7 km/h 11.9 km/h 63% 0 mm 809.0 W/m2 OVC
12:10 31.9 °C 24 °C 1010 hPa SSW 3.7 km/h 9 km/h 63% 0 mm 821.0 W/m2 OVC
12:15 32.2 °C 25.1 °C 1010 hPa SSW 3.7 km/h 7.9 km/h 66% 0 mm 799.0 W/m2 OVC
12:20 32.3 °C 24.9 °C 1010 hPa SSW 3.7 km/h 11.6 km/h 65% 0 mm 785.0 W/m2 OVC
12:25 32.2 °C 24 °C 1010 hPa SSW 3.7 km/h 6.4 km/h 62% 0 mm 734.0 W/m2 OVC
12:30 32.3 °C 24.9 °C 1010 hPa SSW 3.7 km/h 6.4 km/h 65% 0 mm 770.0 W/m2 OVC
12:35 27.5 °C 23.3 °C 1010.7 hPa SSW 3.2 km/h 6.4 km/h 78% 0 mm 779.0 W/m2 OVC
12:40 27.5 °C 23.3 °C 1010.7 hPa SSW 3.2 km/h 11.3 km/h 78% 0 mm 809.0 W/m2 OVC
12:45 27.5 °C 23.3 °C 1010.7 hPa SSW 3.2 km/h 11.3 km/h 78% 0 mm 848.0 W/m2 OVC
12:50 27.5 °C 23.3 °C 1010.7 hPa SSW 3.2 km/h 8 km/h 78% 0 mm 852.0 W/m2 OVC
12:55 27.5 °C 23.3 °C 1010.7 hPa SSW 3.2 km/h 6.4 km/h 78% 0 mm 790.0 W/m2 OVC
13:00 27.5 °C 23.3 °C 1010.7 hPa SSW 3.2 km/h 8 km/h 78% 0 mm 782.0 W/m2 OVC
13:05 27.5 °C 23.3 °C 1010.7 hPa SSW 3.2 km/h 8 km/h 78% 0 mm 660.0 W/m2 OVC
13:10 33 °C 25 °C 1010 hPa SSW 3.7 km/h 7.9 km/h 63% 0 mm 772.0 W/m2 OVC
13:15 32.8 °C 25.1 °C 1010 hPa SSW 3.7 km/h 7.2 km/h 64% 0 mm 802.0 W/m2 OVC
13:20 27.5 °C 23.3 °C 1010.7 hPa SSW 3.2 km/h 8 km/h 78% 0 mm 727.0 W/m2 OVC
13:25 27.5 °C 23.3 °C 1010.7 hPa SSW 3.2 km/h 8 km/h 78% 0 mm 702.0 W/m2 OVC
PIMOHWEATHER Philippines
Compliments of Weather Underground - 2 mb
www.000webhost.com